Time;durP1;ratioP1;P1;durP2;ratioP2;P2;SDS_P1;SDS_P2;PMS_P1;PMS_P2;Temp;Humidity;BMP_temperature;BMP_pressure;BME280_temperature;BME280_humidity;BME280_pressure;Samples;Min_cycle;Max_cycle;Signal;HPM_P1;HPM_P2
2023/07/24 00:01:41;;;;;;;0.20;0.20;;;;;;;13.88;100.00;98974.75;5044905;28;20017;-65
2023/07/24 00:04:07;;;;;;;0.20;0.20;;;;;;;13.87;100.00;98973.03;5045075;28;20029;-65
2023/07/24 00:06:32;;;;;;;0.20;0.20;;;;;;;13.87;100.00;98966.06;5044854;28;20441;-65
2023/07/24 00:08:58;;;;;;;0.20;0.20;;;;;;;13.90;100.00;98977.28;5045041;28;20025;-65
2023/07/24 00:11:23;;;;;;;0.20;0.20;;;;;;;13.88;100.00;98965.13;5045534;28;20017;-65
2023/07/24 00:13:48;;;;;;;0.30;0.30;;;;;;;13.90;100.00;98972.06;5027681;28;20033;-65
2023/07/24 00:16:14;;;;;;;0.20;0.20;;;;;;;13.89;100.00;98955.56;5045722;28;20112;-66
2023/07/24 00:18:40;;;;;;;0.20;0.20;;;;;;;13.88;100.00;98970.34;5043076;28;20474;-65
2023/07/24 00:21:06;;;;;;;0.20;0.20;;;;;;;13.89;100.00;98960.78;5043183;28;20032;-65
2023/07/24 00:23:32;;;;;;;0.20;0.20;;;;;;;13.86;100.00;98956.56;5043485;28;20021;-65
2023/07/24 00:25:57;;;;;;;0.30;0.30;;;;;;;13.86;100.00;98953.94;5044280;28;20057;-66
2023/07/24 00:28:22;;;;;;;0.20;0.20;;;;;;;13.81;100.00;98948.09;5044186;28;20077;-65
2023/07/24 00:30:48;;;;;;;0.20;0.20;;;;;;;13.83;100.00;98945.41;5042876;28;20079;-65
2023/07/24 00:33:13;;;;;;;0.30;0.30;;;;;;;13.82;100.00;98935.88;5043615;28;20018;-65
2023/07/24 00:35:38;;;;;;;0.25;0.25;;;;;;;13.73;100.00;98914.53;5043710;28;20017;-65
2023/07/24 00:38:04;;;;;;;0.28;0.28;;;;;;;13.79;100.00;98923.81;5044378;28;20021;-65
2023/07/24 00:40:29;;;;;;;0.20;0.20;;;;;;;13.82;100.00;98918.47;5044146;28;20484;-65
2023/07/24 00:42:55;;;;;;;0.20;0.20;;;;;;;13.79;100.00;98915.13;5044109;28;20041;-65
2023/07/24 00:45:22;;;;;;;0.20;0.20;;;;;;;13.81;100.00;98919.38;5044246;28;20032;-65
2023/07/24 00:47:47;;;;;;;0.20;0.20;;;;;;;13.76;100.00;98897.88;5044308;28;20025;-64
2023/07/24 00:50:13;;;;;;;0.20;0.20;;;;;;;13.75;100.00;98890.97;5043792;28;20028;-65
2023/07/24 00:52:40;;;;;;;0.30;0.30;;;;;;;13.75;100.00;98893.59;5044439;28;20018;-65
2023/07/24 00:55:06;;;;;;;0.30;0.30;;;;;;;13.75;100.00;98891.81;5044258;28;20048;-64
2023/07/24 00:57:32;;;;;;;0.20;0.20;;;;;;;13.72;100.00;98881.53;5044114;28;20017;-64
2023/07/24 00:59:58;;;;;;;0.22;0.22;;;;;;;13.78;100.00;98885.63;5043838;28;20095;-65
2023/07/24 01:02:23;;;;;;;0.30;0.30;;;;;;;13.78;100.00;98889.97;5044099;28;20021;-65
2023/07/24 01:04:49;;;;;;;0.20;0.20;;;;;;;13.77;100.00;98886.53;5042072;28;20021;-65
2023/07/24 01:07:16;;;;;;;0.30;0.30;;;;;;;13.78;100.00;98884.78;5043596;28;20025;-65
2023/07/24 01:09:42;;;;;;;0.20;0.20;;;;;;;13.77;100.00;98888.31;5043599;28;20345;-65
2023/07/24 01:12:32;;;;;;;0.30;0.30;;;;;;;13.75;100.00;98864.91;5044042;28;20017;-64
2023/07/24 01:15:14;;;;;;;0.20;0.20;;;;;;;13.73;100.00;98870.19;5043722;28;20045;-65
2023/07/24 01:17:45;;;;;;;0.30;0.30;;;;;;;13.73;100.00;98858.91;5043444;28;20333;-64
2023/07/24 01:20:14;;;;;;;0.30;0.30;;;;;;;13.73;100.00;98858.91;5025114;28;20033;-65
2023/07/24 01:22:57;;;;;;;0.28;0.28;;;;;;;13.72;100.00;98844.19;5043647;28;20041;-65
2023/07/24 01:25:31;;;;;;;0.20;0.20;;;;;;;13.73;100.00;98840.66;5002561;28;1180836;-65
2023/07/24 01:27:56;;;;;;;0.20;0.20;;;;;;;13.74;100.00;98858.84;5044553;28;20034;-64
2023/07/24 01:30:22;;;;;;;0.20;0.20;;;;;;;13.75;100.00;98864.91;5044919;28;20086;-64
2023/07/24 01:32:48;;;;;;;0.30;0.30;;;;;;;13.74;100.00;98857.97;5048685;28;20044;-64
2023/07/24 01:35:14;;;;;;;0.20;0.20;;;;;;;13.71;100.00;98847.69;5048476;28;20017;-65
2023/07/24 01:37:41;;;;;;;0.20;0.20;;;;;;;13.73;100.00;98825.00;5047319;28;20355;-65
2023/07/24 01:40:08;;;;;;;0.20;0.20;;;;;;;13.72;100.00;98833.75;5046744;28;20123;-65
2023/07/24 01:42:34;;;;;;;0.20;0.20;;;;;;;13.73;100.00;98835.44;5030539;28;20108;-64
2023/07/24 01:45:02;;;;;;;0.30;0.30;;;;;;;13.75;100.00;98844.03;5048074;28;20026;-65
2023/07/24 01:47:27;;;;;;;0.30;0.30;;;;;;;13.73;100.00;98845.88;5046817;28;20029;-64
2023/07/24 01:49:53;;;;;;;0.20;0.20;;;;;;;13.71;100.00;98834.66;5047854;28;20032;-65
2023/07/24 01:52:18;;;;;;;0.30;0.30;;;;;;;13.69;100.00;98836.50;5048574;28;20017;-64
2023/07/24 01:54:43;;;;;;;0.20;0.20;;;;;;;13.70;100.00;98826.00;5047878;28;20017;-64
2023/07/24 01:57:09;;;;;;;0.20;0.20;;;;;;;13.68;100.00;98817.41;5047962;28;20573;-63
2023/07/24 01:59:34;;;;;;;0.20;0.20;;;;;;;13.69;100.00;98818.25;5047736;28;20478;-64
2023/07/24 02:02:00;;;;;;;0.20;0.20;;;;;;;13.72;100.00;98818.09;5047620;28;20093;-63
2023/07/24 02:04:25;;;;;;;0.20;0.20;;;;;;;13.70;100.00;98823.41;5047820;28;20085;-64
2023/07/24 02:06:50;;;;;;;0.60;0.60;;;;;;;13.69;100.00;98803.44;5047960;28;20021;-63
2023/07/24 02:09:18;;;;;;;0.20;0.20;;;;;;;13.73;100.00;98827.59;5047991;28;20025;-62
2023/07/24 02:11:44;;;;;;;0.20;0.20;;;;;;;13.73;100.00;98804.13;5048037;28;20025;-63
2023/07/24 02:14:12;;;;;;;0.25;0.25;;;;;;;13.71;100.00;98792.91;5047988;28;20037;-63
2023/07/24 02:16:38;;;;;;;0.30;0.30;;;;;;;13.71;100.00;98791.16;5047541;28;20025;-64
2023/07/24 02:19:03;;;;;;;0.20;0.20;;;;;;;13.73;100.00;98802.38;5047299;28;20029;-63
2023/07/24 02:21:29;;;;;;;0.20;0.20;;;;;;;13.74;100.00;98790.16;5047433;28;20014;-64
2023/07/24 02:23:54;;;;;;;0.20;0.20;;;;;;;13.74;100.00;98790.16;5047619;28;20091;-64
2023/07/24 02:26:20;;;;;;;0.20;0.20;;;;;;;13.75;100.00;98786.66;5047411;28;20056;-63
2023/07/24 02:28:45;;;;;;;0.20;0.20;;;;;;;13.75;100.00;98787.50;5047684;28;20089;-64
2023/07/24 02:31:11;;;;;;;0.20;0.20;;;;;;;13.76;100.00;98790.94;5047451;28;20025;-63
2023/07/24 02:33:37;;;;;;;0.30;0.30;;;;;;;13.74;100.00;98790.16;5029463;28;20029;-64
2023/07/24 02:36:02;;;;;;;0.40;0.40;;;;;;;13.78;100.00;98789.13;5046953;28;20071;-64
2023/07/24 02:38:28;;;;;;;0.20;0.20;;;;;;;13.78;100.00;98781.31;5047020;28;20021;-64
2023/07/24 02:40:53;;;;;;;0.20;0.20;;;;;;;13.81;100.00;98783.75;5047342;28;20031;-63
2023/07/24 02:43:18;;;;;;;0.20;0.20;;;;;;;13.78;100.00;98776.09;5046525;28;20130;-63
2023/07/24 02:45:44;;;;;;;0.30;0.30;;;;;;;13.83;100.00;98786.28;5046980;28;20017;-64
2023/07/24 02:48:09;;;;;;;0.30;0.30;;;;;;;13.81;100.00;98783.75;5046802;28;20389;-63
2023/07/24 02:50:35;;;;;;;0.30;0.30;;;;;;;13.74;100.00;98770.16;5045443;28;20116;-63
2023/07/24 02:53:01;;;;;;;0.30;0.30;;;;;;;13.81;100.00;98783.75;5046855;28;20025;-63
2023/07/24 02:55:26;;;;;;;0.30;0.30;;;;;;;13.80;100.00;98779.44;5047069;28;20025;-64
2023/07/24 02:57:51;;;;;;;0.30;0.30;;;;;;;13.83;100.00;98768.88;5047040;28;20017;-63
2023/07/24 03:00:17;;;;;;;0.20;0.20;;;;;;;13.85;100.00;98774.84;5046289;28;20110;-64
2023/07/24 03:02:42;;;;;;;0.30;0.30;;;;;;;13.87;100.00;98773.03;5046681;28;20052;-64
2023/07/24 03:05:08;;;;;;;0.20;0.20;;;;;;;13.89;100.00;98770.34;5046674;28;20026;-65
2023/07/24 03:07:34;;;;;;;0.20;0.20;;;;;;;13.91;100.00;98765.91;5045566;28;20112;-63
2023/07/24 03:10:00;;;;;;;0.20;0.20;;;;;;;13.88;100.00;98763.44;5046228;28;20029;-64
2023/07/24 03:12:25;;;;;;;0.28;0.28;;;;;;;13.94;100.00;98759.69;5046328;28;20041;-63
2023/07/24 03:14:51;;;;;;;0.20;0.20;;;;;;;13.97;100.00;98759.53;5047097;28;20033;-64
2023/07/24 03:17:16;;;;;;;0.20;0.20;;;;;;;13.97;100.00;98756.91;5046624;28;20076;-63
2023/07/24 03:19:42;;;;;;;0.30;0.30;;;;;;;14.00;100.00;98761.97;5044860;28;20051;-63
2023/07/24 03:22:07;;;;;;;0.22;0.22;;;;;;;14.00;100.00;98762.84;5046235;28;20060;-63
2023/07/24 03:24:34;;;;;;;0.20;0.20;;;;;;;14.02;100.00;98752.31;5045955;28;20021;-63
2023/07/24 03:27:00;;;;;;;0.20;0.20;;;;;;;14.04;100.00;98753.06;5046084;28;20127;-63
2023/07/24 03:29:28;;;;;;;0.20;0.20;;;;;;;14.07;100.00;98747.72;5046304;28;20036;-63
2023/07/24 03:31:53;;;;;;;0.20;0.20;;;;;;;14.10;100.00;98751.94;5046315;28;20397;-65
2023/07/24 03:34:19;;;;;;;0.20;0.20;;;;;;;14.13;100.00;98751.78;5046353;28;20029;-63
2023/07/24 03:36:44;;;;;;;0.20;0.20;;;;;;;14.12;100.00;98748.31;5045873;28;20089;-63
2023/07/24 03:39:13;;;;;;;0.20;0.20;;;;;;;14.12;100.00;98750.94;5045006;28;20115;-64
2023/07/24 03:41:39;;;;;;;0.20;0.20;;;;;;;14.12;100.00;98756.16;5046156;28;20021;-64
2023/07/24 03:44:05;;;;;;;0.20;0.20;;;;;;;14.15;100.00;98749.97;5045900;28;20036;-64
2023/07/24 03:46:32;;;;;;;0.20;0.20;;;;;;;14.18;100.00;98751.56;5027980;28;20029;-64
2023/07/24 03:48:57;;;;;;;0.20;0.20;;;;;;;14.22;100.00;98747.88;5045611;28;20037;-64
2023/07/24 03:51:23;;;;;;;0.30;0.30;;;;;;;14.27;100.00;98739.78;5044547;28;20040;-65
2023/07/24 03:53:48;;;;;;;0.30;0.30;;;;;;;14.30;100.00;98737.88;5044928;28;20017;-63
2023/07/24 03:56:13;;;;;;;0.20;0.20;;;;;;;14.42;100.00;98751.22;5046071;28;20113;-64
2023/07/24 03:58:39;;;;;;;0.20;0.20;;;;;;;14.44;100.00;98752.00;5044534;28;20025;-64
2023/07/24 04:01:05;;;;;;;0.20;0.20;;;;;;;14.46;100.00;98747.53;5045959;28;20032;-64
2023/07/24 04:03:30;;;;;;;0.20;0.20;;;;;;;14.51;100.00;98745.53;5045389;28;20028;-64
2023/07/24 04:05:55;;;;;;;0.20;0.20;;;;;;;14.53;100.00;98746.31;5045317;28;20025;-65
2023/07/24 04:08:21;;;;;;;0.20;0.20;;;;;;;14.56;100.00;98732.25;5045467;28;20032;-65
2023/07/24 04:10:46;;;;;;;0.20;0.20;;;;;;;14.63;100.00;98736.25;5045237;28;20051;-65
2023/07/24 04:13:12;;;;;;;0.20;0.20;;;;;;;14.70;100.00;98732.38;5045244;28;20014;-65
2023/07/24 04:15:39;;;;;;;0.20;0.20;;;;;;;14.75;100.00;98724.28;5045195;28;20028;-64
2023/07/24 04:18:04;;;;;;;0.20;0.20;;;;;;;14.82;100.00;98727.47;5045426;28;20028;-65
2023/07/24 04:20:30;;;;;;;0.30;0.30;;;;;;;14.87;100.00;98728.88;5044870;28;20029;-65
2023/07/24 04:22:55;;;;;;;0.20;0.20;;;;;;;14.92;100.00;98730.44;5045809;28;20053;-65
2023/07/24 04:25:21;;;;;;;0.20;0.20;;;;;;;14.94;100.00;98724.19;5045302;28;20123;-65
2023/07/24 04:27:46;;;;;;;0.20;0.20;;;;;;;14.98;100.00;98719.66;5045282;28;20555;-65
2023/07/24 04:30:11;;;;;;;0.28;0.28;;;;;;;14.96;100.00;98711.03;5045152;28;20021;-65
2023/07/24 04:32:37;;;;;;;0.20;0.20;;;;;;;15.02;100.00;98713.31;5045371;28;20026;-65
2023/07/24 04:35:03;;;;;;;0.20;0.20;;;;;;;15.02;100.00;98708.09;5044942;28;20025;-64
2023/07/24 04:37:28;;;;;;;0.20;0.20;;;;;;;15.05;100.00;98707.91;5045218;28;20029;-64
2023/07/24 04:39:53;;;;;;;0.20;0.20;;;;;;;15.09;100.00;98700.75;5045042;28;20026;-63
2023/07/24 04:42:19;;;;;;;3.08;2.83;;;;;;;15.11;100.00;98698.91;5045007;28;20072;-65
2023/07/24 04:44:44;;;;;;;0.20;0.20;;;;;;;15.10;100.00;98698.06;5027244;28;20049;-64
2023/07/24 04:47:09;;;;;;;0.20;0.20;;;;;;;15.14;100.00;98692.66;5045091;28;20025;-65
2023/07/24 04:49:35;;;;;;;0.20;0.20;;;;;;;15.18;100.00;98694.16;5044712;28;20025;-64
2023/07/24 04:52:00;;;;;;;0.20;0.20;;;;;;;15.18;100.00;98689.78;5044960;28;20014;-65
2023/07/24 04:54:26;;;;;;;0.20;0.20;;;;;;;15.20;100.00;98687.94;5044694;28;20017;-63
2023/07/24 04:56:51;;;;;;;0.20;0.20;;;;;;;15.27;100.00;98688.44;5044702;28;20104;-64
2023/07/24 04:59:17;;;;;;;0.20;0.20;;;;;;;15.34;100.00;98692.41;5044909;28;20127;-64
2023/07/24 05:01:42;;;;;;;0.20;0.20;;;;;;;15.38;100.00;98690.47;5044805;28;20520;-64
2023/07/24 05:04:08;;;;;;;0.20;0.20;;;;;;;15.39;100.00;98680.84;5044874;28;20021;-65
2023/07/24 05:06:35;;;;;;;0.20;0.20;;;;;;;15.48;100.00;98682.94;5044043;28;20025;-65
2023/07/24 05:09:01;;;;;;;0.20;0.20;;;;;;;15.52;100.00;98678.38;5044795;28;20029;-63
2023/07/24 05:11:26;;;;;;;0.20;0.20;;;;;;;15.49;100.00;98671.56;5044324;28;20454;-63
2023/07/24 05:13:52;;;;;;;0.20;0.20;;;;;;;15.49;100.00;98675.00;5044493;28;20029;-64
2023/07/24 05:16:17;;;;;;;0.20;0.20;;;;;;;15.53;100.00;98667.81;5045039;28;20032;-64
2023/07/24 05:18:42;;;;;;;0.20;0.20;;;;;;;15.54;100.00;98663.44;5044730;28;20021;-63
2023/07/24 05:21:08;;;;;;;0.28;0.28;;;;;;;15.56;100.00;98662.41;5026479;28;20050;-62
2023/07/24 05:23:33;;;;;;;0.20;0.20;;;;;;;15.61;100.00;98665.63;5044322;28;20329;-62
2023/07/24 05:26:01;;;;;;;0.20;0.20;;;;;;;15.65;100.00;98668.06;5043988;28;20041;-64
2023/07/24 05:28:27;;;;;;;0.20;0.20;;;;;;;15.65;100.00;98662.81;5044403;28;20032;-62
2023/07/24 05:30:53;;;;;;;0.20;0.20;;;;;;;15.67;100.00;98661.78;5044295;28;20022;-63
2023/07/24 05:33:18;;;;;;;0.20;0.20;;;;;;;15.73;100.00;98669.28;5044215;28;20025;-63
2023/07/24 05:35:43;;;;;;;0.20;0.20;;;;;;;15.78;100.00;98671.66;5044177;28;20021;-62
2023/07/24 05:38:09;;;;;;;0.20;0.20;;;;;;;15.80;100.00;98654.06;5043092;28;20021;-62
2023/07/24 05:40:35;;;;;;;0.20;0.20;;;;;;;15.91;100.00;98663.09;5044364;28;20520;-64
2023/07/24 05:43:00;;;;;;;0.20;0.20;;;;;;;15.97;100.00;98660.09;5044206;28;20030;-63
2023/07/24 05:45:27;;;;;;;0.20;0.20;;;;;;;16.03;100.00;98658.91;5044195;28;20029;-62
2023/07/24 05:47:52;;;;;;;0.20;0.20;;;;;;;16.00;100.00;98651.25;5044394;28;20029;-63
2023/07/24 05:50:17;;;;;;;0.20;0.20;;;;;;;16.08;100.00;98655.13;5042610;28;20079;-62
2023/07/24 05:52:43;;;;;;;0.20;0.20;;;;;;;16.11;100.00;98651.47;5044408;28;20577;-62
2023/07/24 05:55:09;;;;;;;0.20;0.20;;;;;;;16.15;100.00;98657.38;5042787;28;20029;-67
2023/07/24 05:57:34;;;;;;;0.20;0.20;;;;;;;16.13;100.00;98646.13;5044301;28;20092;-65
2023/07/24 05:59:59;;;;;;;0.20;0.20;;;;;;;16.10;100.00;98649.78;5044193;28;20027;-68
2023/07/24 06:02:25;;;;;;;0.20;0.20;;;;;;;16.12;100.00;98649.69;5043841;28;20049;-63
2023/07/24 06:04:50;;;;;;;0.40;0.40;;;;;;;16.12;100.00;98649.69;5044141;28;20070;-66
2023/07/24 06:07:16;;;;;;;0.20;0.20;;;;;;;16.14;100.00;98650.44;5043899;28;20022;-68
2023/07/24 06:09:41;;;;;;;0.20;0.20;;;;;;;16.09;100.00;98642.84;5026362;28;20393;-67
2023/07/24 06:14:38;;;;;;;0.30;0.30;;;;;;;16.03;100.00;98632.75;5040930;28;20462;-61
2023/07/24 06:17:04;;;;;;;0.52;0.52;;;;;;;16.06;100.00;98638.66;5044968;28;20021;-61
2023/07/24 06:19:29;;;;;;;0.20;0.20;;;;;;;16.05;100.00;98636.97;5047732;28;20421;-61
2023/07/24 06:21:55;;;;;;;0.20;0.20;;;;;;;16.09;100.00;98635.00;5048117;28;20115;-62
2023/07/24 06:24:20;;;;;;;0.22;0.22;;;;;;;16.14;100.00;98639.94;5048474;28;20033;-61
2023/07/24 06:26:46;;;;;;;0.20;0.20;;;;;;;16.15;100.00;98637.25;5048492;28;20097;-61
2023/07/24 06:29:11;;;;;;;0.20;0.20;;;;;;;16.14;100.00;98627.72;5048143;28;20456;-61
2023/07/24 06:31:37;;;;;;;0.20;0.20;;;;;;;16.16;100.00;98635.47;5048367;28;20021;-61
2023/07/24 06:34:02;;;;;;;0.20;0.20;;;;;;;16.15;100.00;98639.03;5048192;28;20081;-60
2023/07/24 06:36:28;;;;;;;0.20;0.20;;;;;;;16.17;100.00;98629.28;5047799;28;20032;-61
2023/07/24 06:38:53;;;;;;;0.10;0.10;;;;;;;16.24;100.00;98628.00;5048241;28;20025;-61
2023/07/24 06:41:21;;;;;;;0.28;0.28;;;;;;;16.48;100.00;98632.69;5047664;28;20026;-61
2023/07/24 06:43:46;;;;;;;0.30;0.30;;;;;;;16.81;100.00;98628.03;5047845;28;20109;-62
2023/07/24 06:46:11;;;;;;;0.25;0.25;;;;;;;17.13;100.00;98630.41;5047693;28;20025;-62
2023/07/24 06:48:37;;;;;;;0.20;0.20;;;;;;;17.33;100.00;98629.13;5047837;28;20021;-61
2023/07/24 06:51:02;;;;;;;0.20;0.20;;;;;;;17.51;100.00;98614.91;5047488;28;20098;-61
2023/07/24 06:53:28;;;;;;;0.20;0.20;;;;;;;17.61;100.00;98617.75;5047599;28;20081;-59
2023/07/24 06:55:53;;;;;;;0.20;0.20;;;;;;;17.97;100.00;98616.22;5047884;28;20021;-60
2023/07/24 06:58:18;;;;;;;0.20;0.20;;;;;;;18.37;100.00;98604.75;5047709;28;20026;-60
2023/07/24 07:00:44;;;;;;;0.20;0.20;;;;;;;18.26;100.00;98608.13;5047771;28;20026;-60
2023/07/24 07:03:09;;;;;;;0.10;0.10;;;;;;;18.14;100.00;98614.25;5047270;28;20021;-61
2023/07/24 07:05:34;;;;;;;0.20;0.20;;;;;;;17.99;100.00;98613.50;5047334;28;20041;-61
2023/07/24 07:08:00;;;;;;;0.20;0.20;;;;;;;17.79;100.00;98603.41;5047049;28;20026;-62
2023/07/24 07:10:25;;;;;;;0.20;0.20;;;;;;;17.52;100.00;98600.84;5047217;28;20080;-62
2023/07/24 07:12:50;;;;;;;0.20;0.20;;;;;;;17.44;100.00;98604.81;5046961;28;20049;-61
2023/07/24 07:15:16;;;;;;;0.20;0.20;;;;;;;17.36;100.00;98603.66;5046941;28;20022;-61
2023/07/24 07:17:42;;;;;;;0.20;0.20;;;;;;;17.23;100.00;98596.59;5046635;28;20051;-61
2023/07/24 07:20:07;;;;;;;0.20;0.20;;;;;;;17.19;100.00;98603.81;5046441;28;20021;-61
2023/07/24 07:22:33;;;;;;;0.35;0.35;;;;;;;17.11;100.00;98597.38;5046801;28;20032;-62
2023/07/24 07:24:58;;;;;;;0.28;0.28;;;;;;;17.00;100.00;98590.19;5047216;28;20026;-61
2023/07/24 07:27:23;;;;;;;0.30;0.30;;;;;;;16.98;100.00;98587.66;5046626;28;20051;-62
2023/07/24 07:29:49;;;;;;;0.20;0.20;;;;;;;16.93;100.00;98581.88;5045932;28;20040;-62
2023/07/24 07:32:14;;;;;;;0.20;0.20;;;;;;;16.94;100.00;98588.78;5046620;28;20385;-61
2023/07/24 07:34:40;;;;;;;0.75;0.75;;;;;;;16.92;100.00;98588.03;5046534;28;20089;-62
2023/07/24 07:37:06;;;;;;;0.20;0.20;;;;;;;16.91;100.00;98586.38;5046547;28;20025;-63
2023/07/24 07:39:32;;;;;;;0.20;0.20;;;;;;;16.96;100.00;98597.41;5046575;28;20034;-62
2023/07/24 07:41:57;;;;;;;0.20;0.20;;;;;;;16.94;100.00;98589.63;5047063;28;20025;-62
2023/07/24 07:44:23;;;;;;;0.20;0.20;;;;;;;16.94;100.00;98587.03;5046292;28;20026;-62
2023/07/24 07:46:48;;;;;;;0.20;0.20;;;;;;;16.91;100.00;98583.75;5046048;28;20143;-62
2023/07/24 07:49:13;;;;;;;0.82;0.82;;;;;;;16.91;100.00;98576.72;5046253;28;20057;-62
2023/07/24 07:51:39;;;;;;;0.20;0.20;;;;;;;16.88;100.00;98581.31;5045940;28;20026;-63
2023/07/24 07:54:04;;;;;;;0.20;0.20;;;;;;;16.86;100.00;98584.03;5046236;28;20052;-63
2023/07/24 07:56:30;;;;;;;0.20;0.20;;;;;;;16.83;100.00;98581.63;5046084;28;20242;-62
2023/07/24 07:58:55;;;;;;;0.20;0.20;;;;;;;16.83;100.00;98579.84;5046311;28;20025;-61
2023/07/24 08:01:20;;;;;;;0.20;0.20;;;;;;;16.88;100.00;98576.94;5045812;28;20056;-61
2023/07/24 08:03:46;;;;;;;0.20;0.20;;;;;;;16.80;100.00;98568.72;5046014;28;20026;-62
2023/07/24 08:06:12;;;;;;;0.20;0.20;;;;;;;16.71;100.00;98572.75;5046094;28;20038;-62
2023/07/24 08:08:37;;;;;;;0.20;0.20;;;;;;;16.63;100.00;98567.19;5046027;28;20032;-62
2023/07/24 08:11:07;;;;;;;0.52;0.45;;;;;;;16.59;100.00;98570.00;5045717;28;20029;-61
2023/07/24 08:13:33;;;;;;;0.20;0.20;;;;;;;16.50;100.00;98569.72;5045786;28;20076;-62
2023/07/24 08:16:03;;;;;;;0.20;0.20;;;;;;;16.41;100.00;98564.13;5045830;28;20031;-61
2023/07/24 08:18:30;;;;;;;0.20;0.20;;;;;;;16.32;100.00;98557.69;5045979;28;20043;-61
2023/07/24 08:20:55;;;;;;;0.20;0.20;;;;;;;16.26;100.00;98568.53;5045634;28;20129;-61
2023/07/24 08:23:20;;;;;;;0.20;0.20;;;;;;;16.19;100.00;98569.84;5045610;28;20465;-61
2023/07/24 08:25:53;;;;;;;0.20;0.20;;;;;;;16.13;100.00;98565.84;5045719;28;20024;-61
2023/07/24 08:28:19;;;;;;;0.20;0.20;;;;;;;16.12;100.00;98563.31;5045978;28;20018;-61
2023/07/24 08:30:46;;;;;;;0.20;0.20;;;;;;;16.19;100.00;98564.59;5045668;28;20393;-62
2023/07/24 08:33:12;;;;;;;0.20;0.20;;;;;;;16.20;100.00;98571.50;5045588;28;20018;-61
2023/07/24 08:35:37;;;;;;;0.20;0.20;;;;;;;16.15;100.00;98558.72;5045652;28;20093;-62
2023/07/24 08:38:03;;;;;;;0.20;0.20;;;;;;;16.18;100.00;98563.75;5045612;28;20075;-62
2023/07/24 08:40:28;;;;;;;0.20;0.20;;;;;;;16.16;100.00;98564.78;5045276;28;20021;-61
2023/07/24 08:42:54;;;;;;;0.20;0.20;;;;;;;16.12;100.00;98558.91;5045537;28;20022;-61
2023/07/24 08:45:20;;;;;;;0.20;0.20;;;;;;;16.12;100.00;98552.84;5045638;28;20048;-61
2023/07/24 08:47:46;;;;;;;0.20;0.20;;;;;;;16.08;100.00;98553.03;5045441;28;20032;-62
2023/07/24 08:50:14;;;;;;;0.20;0.20;;;;;;;16.03;100.00;98556.84;5045482;28;20053;-61
2023/07/24 08:52:40;;;;;;;0.43;0.43;;;;;;;16.06;100.00;98548.81;5045356;28;20099;-62
2023/07/24 08:55:06;;;;;;;0.20;0.20;;;;;;;16.16;100.00;98549.09;5045590;28;20021;-62
2023/07/24 08:57:32;;;;;;;0.30;0.30;;;;;;;16.29;100.00;98549.19;5045326;28;20030;-62
2023/07/24 08:59:58;;;;;;;0.20;0.20;;;;;;;16.47;100.00;98542.78;5045443;28;20017;-62
2023/07/24 09:02:23;;;;;;;0.20;0.20;;;;;;;16.56;100.00;98544.00;5027534;28;20036;-61
2023/07/24 09:04:49;;;;;;;0.20;0.20;;;;;;;16.56;100.00;98537.91;5045356;28;20026;-62
2023/07/24 09:07:14;;;;;;;0.20;0.20;;;;;;;16.80;100.00;98547.75;5045116;28;20030;-63
2023/07/24 09:09:40;;;;;;;0.20;0.20;;;;;;;17.00;100.00;98538.59;5045443;28;20021;-62
2023/07/24 09:12:05;;;;;;;0.20;0.20;;;;;;;17.26;100.00;98550.94;5045225;28;20028;-61
2023/07/24 09:14:31;;;;;;;0.20;0.20;;;;;;;17.26;100.00;98538.69;5044698;28;20537;-62
2023/07/24 09:17:07;;;;;;;0.10;0.10;;;;;;;17.11;100.00;98537.09;5044871;28;20018;-61
2023/07/24 09:19:33;;;;;;;0.20;0.20;;;;;;;16.97;100.00;98533.53;5045534;28;20017;-60
2023/07/24 09:22:13;;;;;;;0.20;0.20;;;;;;;16.91;100.00;98536.56;5044406;28;20489;-62
2023/07/24 09:24:58;;;;;;;0.25;0.25;;;;;;;16.91;100.00;98532.19;5045078;28;20072;-60
2023/07/24 09:27:28;;;;;;;0.20;0.20;;;;;;;16.92;100.00;98531.22;5044926;28;20021;-61
2023/07/24 09:29:55;;;;;;;0.20;0.20;;;;;;;17.04;100.00;98534.84;5045023;28;20028;-61
2023/07/24 09:32:23;;;;;;;0.20;0.20;;;;;;;16.94;100.00;98528.50;5045046;28;20327;-61
2023/07/24 09:34:55;;;;;;;0.17;0.17;;;;;;;16.91;100.00;98529.56;5045031;28;20029;-62
2023/07/24 09:37:31;;;;;;;0.20;0.20;;;;;;;16.90;100.00;98540.13;5044648;28;20057;-61
2023/07/24 09:39:56;;;;;;;0.20;0.20;;;;;;;16.93;100.00;98532.06;5044975;28;20029;-61
2023/07/24 09:42:33;;;;;;;0.10;0.10;;;;;;;17.12;100.00;98530.91;5044972;28;20017;-61
2023/07/24 09:44:59;;;;;;;0.20;0.20;;;;;;;17.37;100.00;98529.25;5044693;28;20021;-61
2023/07/24 09:47:25;;;;;;;0.20;0.20;;;;;;;17.43;100.00;98534.09;5044721;28;20474;-61
2023/07/24 09:49:54;;;;;;;0.20;0.20;;;;;;;17.43;100.00;98528.84;5044737;28;20036;-61
2023/07/24 09:52:20;;;;;;;0.20;0.20;;;;;;;17.48;100.00;98526.75;5046494;28;20049;-61
2023/07/24 09:55:06;;;;;;;0.20;0.20;;;;;;;17.56;100.00;98531.47;5048849;28;20488;-62
2023/07/24 09:57:32;;;;;;;0.20;0.20;;;;;;;17.48;100.00;98525.94;5048320;28;20088;-62
2023/07/24 09:59:58;;;;;;;0.20;0.20;;;;;;;17.36;100.00;98522.34;5048684;28;20025;-62
2023/07/24 10:02:24;;;;;;;0.20;0.20;;;;;;;17.33;100.00;98533.88;5048403;28;20026;-63
2023/07/24 10:04:50;;;;;;;0.20;0.20;;;;;;;17.24;100.00;98540.56;5048515;28;20021;-60
2023/07/24 10:07:17;;;;;;;0.20;0.20;;;;;;;17.01;100.00;98531.56;5048025;28;20029;-62
2023/07/24 10:09:45;;;;;;;0.20;0.20;;;;;;;16.82;100.00;98519.69;5048513;28;20084;-62
2023/07/24 10:12:11;;;;;;;3.05;1.00;;;;;;;16.82;100.00;98519.69;5048035;28;20021;-63
2023/07/24 10:14:37;;;;;;;0.20;0.20;;;;;;;16.97;100.00;98523.91;5047854;28;20053;-62
2023/07/24 10:17:03;;;;;;;0.20;0.20;;;;;;;17.11;100.00;98523.97;5048003;28;20025;-62
2023/07/24 10:19:44;;;;;;;0.20;0.20;;;;;;;17.17;100.00;98524.41;5048037;28;20168;-62
2023/07/24 10:22:18;;;;;;;0.20;0.20;;;;;;;17.24;100.00;98527.44;5047907;28;20029;-62
2023/07/24 10:24:44;;;;;;;0.20;0.20;;;;;;;17.39;100.00;98524.75;5030042;28;20047;-62
2023/07/24 10:27:11;;;;;;;0.20;0.20;;;;;;;17.46;100.00;98524.22;5048028;28;20085;-66
2023/07/24 10:29:36;;;;;;;0.20;0.20;;;;;;;17.54;100.00;98518.47;5047713;28;20036;-64
2023/07/24 10:32:02;;;;;;;0.20;0.20;;;;;;;17.73;100.00;98514.59;5030411;28;20025;-63
2023/07/24 10:34:40;;;;;;;0.20;0.20;;;;;;;18.03;100.00;98507.31;5047811;28;20021;-63
2023/07/24 10:37:09;;;;;;;0.10;0.10;;;;;;;18.16;100.00;98504.69;5030137;28;20029;-63
2023/07/24 10:39:41;;;;;;;0.20;0.20;;;;;;;18.25;100.00;98503.19;5048059;28;20018;-64
2023/07/24 10:42:10;;;;;;;0.20;0.20;;;;;;;18.16;100.00;98500.28;5048037;28;20057;-64
2023/07/24 10:44:37;;;;;;;0.20;0.20;;;;;;;17.96;100.00;98502.50;5047853;28;20074;-62
2023/07/24 10:47:02;;;;;;;0.20;0.20;;;;;;;17.75;100.00;98499.56;5048021;28;20477;-62
2023/07/24 10:49:28;;;;;;;0.20;0.20;;;;;;;17.84;100.00;98498.94;5047774;28;20036;-62
2023/07/24 10:52:00;;;;;;;0.20;0.20;;;;;;;18.05;100.00;98498.38;5047672;28;20028;-62
2023/07/24 10:54:25;;;;;;;0.20;0.20;;;;;;;18.23;100.00;98492.78;5047609;28;20044;-62
2023/07/24 10:57:00;;;;;;;0.10;0.10;;;;;;;18.38;100.00;98493.50;5047573;28;20033;-63
2023/07/24 10:59:39;;;;;;;0.10;0.10;;;;;;;18.28;100.00;98493.31;5047691;28;20021;-63
2023/07/24 11:02:04;;;;;;;0.13;0.13;;;;;;;18.16;100.00;98476.63;5047483;28;20048;-62
2023/07/24 11:04:30;;;;;;;0.20;0.20;;;;;;;18.20;100.00;98486.00;5047229;28;20041;-63
2023/07/24 11:06:57;;;;;;;0.20;0.20;;;;;;;18.41;100.00;98493.28;5047126;28;20021;-63
2023/07/24 11:09:23;;;;;;;0.20;0.20;;;;;;;18.57;100.00;98495.63;5047332;28;20025;-63
2023/07/24 11:11:51;;;;;;;0.10;0.10;;;;;;;18.73;100.00;98502.41;5047327;28;20028;-63
2023/07/24 11:14:16;;;;;;;0.10;0.10;;;;;;;18.78;100.00;98494.16;5029184;28;20505;-63
2023/07/24 11:16:51;;;;;;;0.20;0.20;;;;;;;18.78;100.00;98497.66;5047446;28;20064;-64
2023/07/24 11:19:26;;;;;;;0.10;0.10;;;;;;;18.70;100.00;98490.34;5047224;28;20025;-62
2023/07/24 11:21:51;;;;;;;0.20;0.20;;;;;;;18.62;100.00;98494.47;5046825;28;20025;-62
2023/07/24 11:24:17;;;;;;;0.20;0.20;;;;;;;18.50;100.00;98497.03;5047036;28;20029;-63